createdAt,value
2022-11-03T00:00:34.633Z,4.33
2022-11-03T00:03:02.348Z,3.93
2022-11-03T00:05:30.973Z,4.57
2022-11-03T00:07:58.262Z,3.67
2022-11-03T00:10:25.556Z,3.83
2022-11-03T00:12:54.183Z,3.63
2022-11-03T00:15:21.411Z,3.53
2022-11-03T00:17:49.051Z,3.73
2022-11-03T00:20:16.441Z,3.47
2022-11-03T00:22:45.343Z,3.57
2022-11-03T00:25:12.648Z,3.90
2022-11-03T00:27:39.998Z,3.40
2022-11-03T00:30:07.770Z,3.83
2022-11-03T00:32:35.049Z,3.60
2022-11-03T00:35:02.448Z,4.03
2022-11-03T00:37:29.733Z,3.07
2022-11-03T00:42:28.193Z,4.23
2022-11-03T00:44:55.403Z,3.87
2022-11-03T00:47:24.304Z,3.30
2022-11-03T00:49:53.305Z,3.80
2022-11-03T00:52:20.862Z,4.53
2022-11-03T00:54:55.277Z,3.03
2022-11-03T00:57:22.869Z,4.17
2022-11-03T00:59:51.448Z,3.27
2022-11-03T01:02:18.793Z,3.50
2022-11-03T01:04:46.100Z,3.80
2022-11-03T01:07:13.742Z,4.60
2022-11-03T01:09:41.631Z,3.00
2022-11-03T01:12:10.782Z,3.53
2022-11-03T01:14:39.168Z,3.80
2022-11-03T01:17:08.359Z,3.50
2022-11-03T01:19:35.726Z,4.40
2022-11-03T01:22:06.444Z,3.83
2022-11-03T01:24:37.043Z,3.20
2022-11-03T01:27:04.652Z,4.13
2022-11-03T01:29:32.167Z,3.70
2022-11-03T01:31:59.388Z,3.10
2022-11-03T01:34:27.996Z,3.93
2022-11-03T01:36:55.579Z,3.57
2022-11-03T01:39:22.949Z,3.67
2022-11-03T01:41:51.313Z,3.87
2022-11-03T01:44:26.984Z,3.17
2022-11-03T01:46:55.232Z,4.03
2022-11-03T01:49:26.048Z,3.60
2022-11-03T01:52:00.144Z,3.57
2022-11-03T01:54:33.928Z,3.93
2022-11-03T01:57:01.530Z,4.43
2022-11-03T01:59:29.009Z,3.70
2022-11-03T02:01:56.512Z,3.13
2022-11-03T02:04:27.945Z,3.53
2022-11-03T02:07:00.490Z,3.27
2022-11-03T02:09:27.819Z,3.87
2022-11-03T02:11:55.388Z,3.63
2022-11-03T02:14:22.681Z,3.07
2022-11-03T02:16:51.314Z,3.47
2022-11-03T02:19:22.545Z,3.40
2022-11-03T02:21:55.680Z,3.17
2022-11-03T02:24:32.225Z,4.00
2022-11-03T02:27:01.362Z,3.50
2022-11-03T02:29:28.624Z,4.07
2022-11-03T02:31:59.145Z,3.30
2022-11-03T02:34:29.673Z,3.47
2022-11-03T02:36:59.226Z,3.70
2022-11-03T02:39:29.796Z,4.50
2022-11-03T02:41:58.064Z,2.90
2022-11-03T02:44:28.233Z,2.50
2022-11-03T02:46:56.910Z,3.03
2022-11-03T02:49:24.114Z,3.10
2022-11-03T02:51:59.988Z,3.43
2022-11-03T02:54:38.409Z,3.90
2022-11-03T02:57:08.638Z,2.80
2022-11-03T02:59:39.430Z,2.80
2022-11-03T03:02:08.653Z,3.80
2022-11-03T03:04:37.744Z,3.53
2022-11-03T03:10:03.538Z,3.40
2022-11-03T03:12:31.826Z,3.97
2022-11-03T03:15:01.666Z,3.93
2022-11-03T03:17:31.600Z,3.30
2022-11-03T03:20:01.840Z,3.70
2022-11-03T03:22:36.693Z,3.30
2022-11-03T03:25:26.800Z,2.90
2022-11-03T03:28:03.703Z,3.23
2022-11-03T03:30:33.527Z,3.80
2022-11-03T03:33:02.099Z,3.67
2022-11-03T03:35:30.445Z,3.63
2022-11-03T03:37:59.809Z,3.53
2022-11-03T03:40:29.928Z,3.77
2022-11-03T03:42:58.048Z,2.80
2022-11-03T03:45:26.256Z,3.63
2022-11-03T03:47:57.740Z,3.30
2022-11-03T03:50:27.221Z,3.47
2022-11-03T03:53:09.006Z,3.57
2022-11-03T03:55:39.936Z,3.97
2022-11-03T03:58:13.562Z,4.30
2022-11-03T04:00:41.368Z,2.97
2022-11-03T04:03:14.400Z,3.93
2022-11-03T04:05:41.916Z,3.30
2022-11-03T04:08:09.300Z,3.00
2022-11-03T04:10:36.730Z,4.00
2022-11-03T04:13:04.308Z,4.00
2022-11-03T04:15:31.782Z,3.30
2022-11-03T04:17:59.130Z,2.67
2022-11-03T04:20:27.900Z,3.40
2022-11-03T04:23:04.581Z,3.23
2022-11-03T04:25:31.833Z,3.57
2022-11-03T04:28:00.333Z,3.90
2022-11-03T04:30:27.568Z,3.70
2022-11-03T04:32:55.228Z,3.43
2022-11-03T04:35:23.411Z,3.17
2022-11-03T04:37:55.425Z,3.60
2022-11-03T04:40:22.953Z,3.17
2022-11-03T04:42:59.527Z,3.30
2022-11-03T04:45:29.371Z,3.03
2022-11-03T04:47:58.830Z,3.30
2022-11-03T04:50:26.760Z,2.80
2022-11-03T04:53:15.882Z,3.80
2022-11-03T04:56:07.360Z,3.33
2022-11-03T04:58:35.285Z,2.93
2022-11-03T05:01:03.794Z,2.87
2022-11-03T05:03:32.825Z,3.10
2022-11-03T05:06:02.633Z,2.60
2022-11-03T05:08:29.841Z,3.17
2022-11-03T05:10:57.141Z,3.47
2022-11-03T05:13:26.727Z,2.90
2022-11-03T05:15:55.191Z,3.57
2022-11-03T05:18:22.903Z,3.37
2022-11-03T05:20:52.161Z,3.23
2022-11-03T05:23:38.328Z,3.53
2022-11-03T05:26:08.043Z,3.17
2022-11-03T05:28:37.985Z,2.80
2022-11-03T05:31:15.855Z,3.13
2022-11-03T05:33:43.117Z,4.47
2022-11-03T05:36:14.751Z,3.13
2022-11-03T05:38:41.973Z,3.27
2022-11-03T05:41:14.350Z,2.77
2022-11-03T05:43:42.953Z,4.23
2022-11-03T05:46:10.851Z,2.83
2022-11-03T05:48:39.963Z,2.80
2022-11-03T05:51:16.540Z,4.00
2022-11-03T05:53:43.830Z,2.77
2022-11-03T05:56:14.473Z,4.07
2022-11-03T05:58:49.508Z,3.23
2022-11-03T06:01:25.854Z,2.93
2022-11-03T06:03:53.298Z,3.53
2022-11-03T06:06:21.912Z,3.50
2022-11-03T06:08:49.353Z,3.07
2022-11-03T06:11:20.440Z,3.07
2022-11-03T06:13:48.984Z,2.90
2022-11-03T06:16:24.390Z,2.70
2022-11-03T06:18:51.941Z,3.43
2022-11-03T06:21:21.065Z,2.73
2022-11-03T06:23:48.326Z,3.60
2022-11-03T06:26:18.721Z,2.60
2022-11-03T06:28:50.085Z,2.97
2022-11-03T06:31:23.031Z,2.80
2022-11-03T06:33:50.955Z,2.47
2022-11-03T06:36:20.521Z,3.47
2022-11-03T06:38:49.812Z,3.60
2022-11-03T06:41:21.623Z,3.07
2022-11-03T06:43:50.798Z,2.90
2022-11-03T06:46:19.882Z,2.73
2022-11-03T06:48:47.221Z,2.47
2022-11-03T06:51:19.870Z,2.70
2022-11-03T06:53:47.565Z,2.70
2022-11-03T06:56:16.372Z,3.00
2022-11-03T06:58:43.642Z,3.07
2022-11-03T07:01:14.504Z,3.13
2022-11-03T07:03:42.011Z,2.93
2022-11-03T07:06:15.756Z,3.50
2022-11-03T07:08:43.865Z,2.70
2022-11-03T07:11:15.233Z,3.00
2022-11-03T07:13:42.673Z,2.80
2022-11-03T07:16:18.782Z,2.90
2022-11-03T07:18:46.704Z,2.93
2022-11-03T07:21:25.551Z,2.83
2022-11-03T07:23:53.105Z,3.73
2022-11-03T07:26:20.337Z,3.17
2022-11-03T07:28:47.626Z,3.03
2022-11-03T07:31:17.577Z,2.63
2022-11-03T07:33:44.894Z,3.47
2022-11-03T07:36:16.988Z,2.47
2022-11-03T07:38:45.269Z,2.80
2022-11-03T07:41:16.663Z,2.20
2022-11-03T07:43:47.516Z,3.10
2022-11-03T07:46:19.806Z,3.13
2022-11-03T07:48:47.811Z,3.63
2022-11-03T07:51:17.195Z,3.07
2022-11-03T07:53:45.734Z,3.80
2022-11-03T07:56:18.827Z,2.63
2022-11-03T07:58:47.473Z,2.73
2022-11-03T08:01:23.984Z,2.97
2022-11-03T08:03:51.570Z,4.07
2022-11-03T08:06:20.047Z,2.90
2022-11-03T08:08:47.629Z,2.83
2022-11-03T08:13:47.034Z,3.17
2022-11-03T08:16:14.236Z,3.10
2022-11-03T08:18:42.900Z,2.97
2022-11-03T08:21:10.117Z,3.13
2022-11-03T08:23:37.394Z,3.80
2022-11-03T08:26:04.657Z,3.43
2022-11-03T08:28:32.089Z,3.17
2022-11-03T08:31:01.975Z,2.87
2022-11-03T08:36:04.608Z,3.73
2022-11-03T08:38:31.897Z,3.37
2022-11-03T08:40:59.125Z,2.60
2022-11-03T08:43:26.518Z,3.50
2022-11-03T08:45:53.766Z,2.83
2022-11-03T08:48:21.286Z,3.20
2022-11-03T08:50:48.636Z,3.20
2022-11-03T08:53:17.400Z,3.63
2022-11-03T08:55:44.604Z,4.07
2022-11-03T08:58:11.869Z,3.20
2022-11-03T09:00:41.124Z,3.90
2022-11-03T09:03:08.831Z,3.27
2022-11-03T09:05:36.129Z,3.30
2022-11-03T09:10:52.093Z,3.27
2022-11-03T09:13:19.378Z,2.43
2022-11-03T09:15:46.655Z,3.00
2022-11-03T09:18:14.072Z,3.37
2022-11-03T09:20:41.246Z,2.87
2022-11-03T09:23:08.450Z,3.17
2022-11-03T09:25:35.701Z,3.20
2022-11-03T09:28:04.476Z,3.33
2022-11-03T09:33:21.316Z,4.23
2022-11-03T09:35:48.571Z,3.03
2022-11-03T09:38:15.765Z,2.07
2022-11-03T09:40:52.390Z,3.27
2022-11-03T09:43:40.084Z,3.53
2022-11-03T09:46:18.288Z,3.30
2022-11-03T09:48:46.767Z,4.20
2022-11-03T09:51:15.769Z,3.80
2022-11-03T09:53:43.165Z,3.83
2022-11-03T09:56:10.701Z,3.87
2022-11-03T09:58:37.932Z,3.37
2022-11-03T10:01:10.731Z,3.63
2022-11-03T10:03:39.450Z,2.80
2022-11-03T10:06:10.968Z,3.47
2022-11-03T10:08:41.733Z,3.50
2022-11-03T10:11:37.025Z,4.17
2022-11-03T10:14:17.790Z,3.50
2022-11-03T10:16:53.329Z,3.47
2022-11-03T10:19:22.345Z,3.90
2022-11-03T10:21:49.598Z,3.40
2022-11-03T10:24:26.022Z,2.97
2022-11-03T10:26:54.280Z,4.00
2022-11-03T10:31:51.912Z,4.00
2022-11-03T10:34:40.380Z,3.07
2022-11-03T10:37:17.863Z,3.20
2022-11-03T10:39:45.449Z,3.60
2022-11-03T10:42:20.302Z,3.50
2022-11-03T10:44:47.596Z,3.53
2022-11-03T10:47:32.298Z,3.07
2022-11-03T10:50:01.209Z,3.77
2022-11-03T10:52:29.325Z,2.87
2022-11-03T10:54:57.509Z,3.07
2022-11-03T10:57:25.007Z,3.53
2022-11-03T10:59:58.350Z,3.03
2022-11-03T11:02:26.842Z,3.13
2022-11-03T11:04:57.125Z,2.70
2022-11-03T11:07:26.585Z,4.17
2022-11-03T11:09:54.442Z,2.70
2022-11-03T11:12:23.176Z,3.60
2022-11-03T11:14:59.777Z,3.17
2022-11-03T11:17:40.314Z,3.20
2022-11-03T11:20:29.456Z,2.63
2022-11-03T11:23:18.028Z,3.33
2022-11-03T11:26:19.164Z,2.90
2022-11-03T11:29:25.599Z,2.60
2022-11-03T11:31:52.860Z,2.70
2022-11-03T11:34:38.700Z,4.10
2022-11-03T11:37:24.413Z,3.07
2022-11-03T11:39:53.022Z,2.90
2022-11-03T11:42:20.893Z,2.93
2022-11-03T11:47:46.993Z,2.67
2022-11-03T11:50:24.464Z,2.67
2022-11-03T11:52:53.885Z,3.00
2022-11-03T11:55:55.351Z,3.00
2022-11-03T11:58:26.625Z,4.23
2022-11-03T12:00:58.421Z,2.53
2022-11-03T12:03:30.807Z,2.43
2022-11-03T12:05:58.133Z,3.60
2022-11-03T12:08:27.002Z,3.10
2022-11-03T12:10:54.876Z,2.60
2022-11-03T12:13:48.532Z,2.37
2022-11-03T12:16:28.572Z,3.00
2022-11-03T12:18:55.830Z,2.83
2022-11-03T12:21:41.509Z,3.27
2022-11-03T12:24:23.621Z,2.80
2022-11-03T12:26:50.901Z,2.37
2022-11-03T12:29:34.700Z,2.97
2022-11-03T12:32:02.200Z,2.63
2022-11-03T12:34:29.402Z,2.60
2022-11-03T12:36:56.650Z,3.00
2022-11-03T12:39:23.889Z,2.60
2022-11-03T12:41:51.136Z,2.77
2022-11-03T12:44:21.299Z,2.57
2022-11-03T12:46:49.999Z,3.20
2022-11-03T12:49:17.381Z,2.23
2022-11-03T12:51:44.612Z,2.57
2022-11-03T12:54:36.577Z,2.80
2022-11-03T12:57:15.892Z,3.03
2022-11-03T12:59:46.284Z,3.10
2022-11-03T13:02:15.018Z,3.23
2022-11-03T13:04:42.378Z,2.70
2022-11-03T13:07:09.559Z,2.57
2022-11-03T13:09:36.801Z,2.23
2022-11-03T13:12:04.187Z,2.73
2022-11-03T13:14:31.393Z,2.70
2022-11-03T13:16:58.619Z,3.30
2022-11-03T13:19:27.175Z,3.30
2022-11-03T13:21:54.367Z,2.40
2022-11-03T13:24:21.568Z,2.30
2022-11-03T13:26:48.874Z,2.70
2022-11-03T13:29:16.145Z,3.00
2022-11-03T13:31:43.374Z,2.37
2022-11-03T13:34:10.638Z,2.73
2022-11-03T13:36:39.513Z,2.90
2022-11-03T13:39:06.855Z,2.20
2022-11-03T13:41:34.056Z,2.13
2022-11-03T13:44:01.324Z,2.80
2022-11-03T13:46:28.582Z,2.67
2022-11-03T13:51:44.718Z,2.33
2022-11-03T13:59:46.551Z,2.70
2022-11-03T14:05:42.383Z,2.23
2022-11-03T14:08:23.223Z,2.07
2022-11-03T14:10:50.454Z,2.43
2022-11-03T14:13:17.636Z,2.73
2022-11-03T14:15:44.836Z,2.50
2022-11-03T14:18:12.060Z,2.70
2022-11-03T14:20:39.258Z,2.03
2022-11-03T14:23:06.890Z,1.80
2022-11-03T14:25:35.638Z,2.63
2022-11-03T14:28:02.948Z,2.47
2022-11-03T14:30:30.433Z,2.17
2022-11-03T14:32:59.716Z,2.37
2022-11-03T14:35:27.160Z,2.00
2022-11-03T14:37:54.421Z,2.17
2022-11-03T14:40:21.627Z,2.37
2022-11-03T14:42:53.791Z,2.20
2022-11-03T14:45:24.047Z,2.33
2022-11-03T14:47:51.406Z,2.30
2022-11-03T14:50:18.706Z,2.03
2022-11-03T14:52:46.251Z,2.60
2022-11-03T14:55:13.501Z,2.20
2022-11-03T14:57:40.691Z,2.83
2022-11-03T15:00:10.250Z,2.50
2022-11-03T15:02:37.789Z,2.10
2022-11-03T15:05:05.458Z,2.30
2022-11-03T15:07:32.679Z,2.60
2022-11-03T15:09:59.986Z,2.80
2022-11-03T15:12:28.628Z,2.30
2022-11-03T15:14:57.034Z,2.03
2022-11-03T15:17:34.780Z,2.53
2022-11-03T15:20:02.398Z,2.40
2022-11-03T15:25:21.503Z,2.00
2022-11-03T15:27:53.444Z,2.53
2022-11-03T15:30:20.740Z,2.50
2022-11-03T15:32:49.790Z,1.80
2022-11-03T15:35:17.145Z,2.63
2022-11-03T15:37:44.369Z,3.97
2022-11-03T15:40:13.260Z,2.60
2022-11-03T15:42:42.267Z,2.87
2022-11-03T15:45:19.109Z,3.13
2022-11-03T15:47:46.514Z,2.70
2022-11-03T15:50:15.057Z,2.60
2022-11-03T15:52:42.536Z,3.23
2022-11-03T15:55:10.144Z,2.97
2022-11-03T15:57:37.700Z,2.80
2022-11-03T16:00:05.805Z,2.83
2022-11-03T16:02:41.574Z,2.57
2022-11-03T16:05:09.721Z,2.90
2022-11-03T16:07:38.622Z,2.70
2022-11-03T16:10:06.378Z,2.63
2022-11-03T16:12:33.742Z,2.90
2022-11-03T16:15:01.006Z,2.60
2022-11-03T16:17:28.250Z,3.10
2022-11-03T16:19:55.887Z,2.60
2022-11-03T16:22:23.117Z,2.30
2022-11-03T16:24:51.662Z,2.13
2022-11-03T16:27:18.851Z,2.30
2022-11-03T16:29:46.119Z,2.57
2022-11-03T16:32:13.321Z,2.60
2022-11-03T16:34:40.525Z,2.40
2022-11-03T16:37:07.727Z,2.80
2022-11-03T16:39:34.909Z,2.80
2022-11-03T16:42:03.520Z,3.40
2022-11-03T16:44:30.724Z,2.77
2022-11-03T16:46:57.993Z,2.23
2022-11-03T16:49:25.250Z,2.70
2022-11-03T16:51:52.469Z,2.90
2022-11-03T16:54:19.895Z,2.83
2022-11-03T16:56:51.925Z,2.77
2022-11-03T16:59:22.999Z,3.03
2022-11-03T17:01:50.447Z,2.33
2022-11-03T17:04:17.729Z,3.40
2022-11-03T17:06:44.940Z,2.87
2022-11-03T17:09:12.329Z,3.40
2022-11-03T17:11:39.529Z,2.60
2022-11-03T17:14:07.981Z,2.70
2022-11-03T17:16:36.551Z,2.87
2022-11-03T17:19:03.824Z,3.53
2022-11-03T17:21:31.049Z,3.10
2022-11-03T17:23:58.320Z,2.47
2022-11-03T17:26:29.526Z,2.50
2022-11-03T17:28:58.025Z,3.13
2022-11-03T17:31:25.550Z,3.23
2022-11-03T17:33:54.574Z,3.23
2022-11-03T17:36:21.982Z,2.93
2022-11-03T17:38:49.225Z,3.07
2022-11-03T17:41:18.959Z,3.23
2022-11-03T17:43:46.480Z,3.20
2022-11-03T17:46:13.694Z,3.50
2022-11-03T17:48:40.909Z,3.60
2022-11-03T17:51:11.026Z,3.53
2022-11-03T17:53:40.071Z,3.60
2022-11-03T17:56:28.831Z,2.40
2022-11-03T17:58:56.693Z,3.67
2022-11-03T18:01:25.604Z,3.60
2022-11-03T18:03:52.947Z,3.50
2022-11-03T18:06:23.878Z,3.30
2022-11-03T18:08:52.329Z,3.60
2022-11-03T18:11:21.438Z,3.43
2022-11-03T18:13:50.719Z,2.80
2022-11-03T18:16:17.966Z,3.97
2022-11-03T18:18:45.811Z,3.53
2022-11-03T18:21:14.385Z,3.63
2022-11-03T18:23:43.294Z,3.60
2022-11-03T18:26:13.788Z,3.73
2022-11-03T18:28:41.022Z,3.37
2022-11-03T18:31:21.272Z,4.30
2022-11-03T18:33:48.954Z,3.77
2022-11-03T18:36:16.797Z,4.63
2022-11-03T18:38:45.577Z,4.47
2022-11-03T18:41:15.117Z,4.50
2022-11-03T18:43:42.396Z,4.13
2022-11-03T18:46:09.687Z,4.40
2022-11-03T18:48:36.877Z,3.53
2022-11-03T18:51:04.181Z,4.30
2022-11-03T18:53:31.405Z,3.27
2022-11-03T18:56:01.450Z,3.67
2022-11-03T18:58:28.664Z,3.90
2022-11-03T19:00:55.920Z,4.03
2022-11-03T19:03:23.991Z,5.10
2022-11-03T19:05:52.267Z,3.70
2022-11-03T19:08:21.593Z,4.20
2022-11-03T19:10:49.468Z,4.60
2022-11-03T19:13:22.448Z,5.17
2022-11-03T19:15:49.774Z,4.53
2022-11-03T19:18:16.994Z,4.17
2022-11-03T19:20:44.358Z,4.27
2022-11-03T19:23:11.587Z,5.20
2022-11-03T19:25:39.410Z,3.97
2022-11-03T19:28:06.723Z,3.73
2022-11-03T19:30:35.295Z,3.90
2022-11-03T19:33:02.703Z,3.40
2022-11-03T19:35:32.178Z,3.73
2022-11-03T19:38:01.828Z,3.33
2022-11-03T19:40:29.465Z,3.10
2022-11-03T19:43:00.589Z,3.50
2022-11-03T19:45:28.031Z,3.13
2022-11-03T19:48:23.599Z,3.00
2022-11-03T19:50:44.957Z,3.70
2022-11-03T19:53:14.661Z,2.63
2022-11-03T19:55:42.834Z,1.83
2022-11-03T19:58:13.579Z,1.93
2022-11-03T20:00:42.647Z,2.10
2022-11-03T20:03:11.323Z,1.83
2022-11-03T20:05:39.005Z,1.53
2022-11-03T20:08:07.993Z,1.60
2022-11-03T20:10:36.206Z,1.67
2022-11-03T20:13:03.772Z,1.63
2022-11-03T20:15:37.218Z,1.60
2022-11-03T20:18:04.572Z,1.80
2022-11-03T20:20:39.085Z,1.57
2022-11-03T20:23:07.316Z,1.70
2022-11-03T20:25:35.589Z,2.07
2022-11-03T20:28:09.069Z,1.77
2022-11-03T20:30:36.344Z,2.03
2022-11-03T20:33:03.529Z,1.60
2022-11-03T20:35:31.294Z,1.53
2022-11-03T20:38:00.035Z,1.90
2022-11-03T20:40:28.116Z,1.80
2022-11-03T20:42:56.645Z,1.73
2022-11-03T20:45:24.362Z,1.47
2022-11-03T20:47:51.862Z,2.20
2022-11-03T20:50:20.949Z,2.10
2022-11-03T20:52:49.279Z,1.83
2022-11-03T20:55:18.870Z,1.87
2022-11-03T20:57:46.675Z,1.53
2022-11-03T21:00:15.318Z,1.77
2022-11-03T21:02:43.070Z,1.70
2022-11-03T21:05:13.692Z,2.10
2022-11-03T21:07:41.004Z,1.73
2022-11-03T21:10:08.605Z,1.97
2022-11-03T21:12:37.251Z,2.50
2022-11-03T21:15:04.614Z,1.83
2022-11-03T21:17:31.882Z,1.67
2022-11-03T21:19:59.088Z,1.53
2022-11-03T21:25:18.044Z,1.73
2022-11-03T21:27:46.846Z,1.97
2022-11-03T21:30:14.540Z,1.57
2022-11-03T21:32:41.821Z,1.53
2022-11-03T21:35:11.511Z,1.50
2022-11-03T21:37:38.766Z,1.57
2022-11-03T21:40:06.497Z,2.17
2022-11-03T21:42:33.733Z,1.20
2022-11-03T21:45:02.300Z,1.87
2022-11-03T21:47:29.762Z,1.40
2022-11-03T21:49:57.169Z,1.40
2022-11-03T21:52:24.634Z,1.70
2022-11-03T21:54:52.181Z,1.63
2022-11-03T21:57:19.696Z,1.50
2022-11-03T21:59:47.182Z,1.20
2022-11-03T22:02:15.877Z,1.73
2022-11-03T22:04:43.209Z,1.90
2022-11-03T22:07:10.444Z,1.70
2022-11-03T22:09:37.640Z,2.00
2022-11-03T22:12:05.129Z,1.90
2022-11-03T22:14:32.343Z,1.87
2022-11-03T22:19:29.209Z,2.20
2022-11-03T22:21:56.467Z,1.57
2022-11-03T22:24:23.745Z,1.73
2022-11-03T22:26:51.065Z,1.90
2022-11-03T22:29:18.346Z,2.40
2022-11-03T22:31:45.794Z,1.83
2022-11-03T22:34:13.835Z,2.30
2022-11-03T22:36:42.401Z,1.67
2022-11-03T22:39:09.781Z,2.27
2022-11-03T22:41:37.118Z,2.07
2022-11-03T22:44:04.353Z,1.90
2022-11-03T22:46:31.785Z,2.00
2022-11-03T22:48:58.988Z,1.90
2022-11-03T22:51:26.256Z,2.17
2022-11-03T22:53:54.758Z,1.67
2022-11-03T22:56:22.777Z,1.90
2022-11-03T22:58:50.209Z,2.23
2022-11-03T23:01:18.814Z,2.10
2022-11-03T23:03:46.998Z,1.40
2022-11-03T23:06:15.037Z,1.73
2022-11-03T23:08:43.122Z,1.50
2022-11-03T23:11:13.125Z,1.50
2022-11-03T23:13:40.330Z,2.00
2022-11-03T23:16:11.783Z,1.60
2022-11-03T23:18:39.007Z,1.40
2022-11-03T23:21:06.358Z,1.70
2022-11-03T23:23:33.608Z,1.80
2022-11-03T23:26:01.459Z,1.87
2022-11-03T23:28:30.025Z,1.43
2022-11-03T23:30:57.206Z,1.73
2022-11-03T23:33:24.616Z,2.10
2022-11-03T23:35:51.821Z,1.33
2022-11-03T23:38:19.064Z,1.30
2022-11-03T23:40:46.236Z,1.90
2022-11-03T23:43:13.437Z,1.60
2022-11-03T23:45:42.084Z,1.30
2022-11-03T23:48:09.681Z,2.30
2022-11-03T23:50:39.014Z,1.70
2022-11-03T23:53:06.281Z,1.53
2022-11-03T23:55:34.065Z,1.57
2022-11-03T23:58:01.449Z,2.07
